createdAt,value
2023-05-13T00:03:33.446Z,56.95
2023-05-13T00:06:00.827Z,56.35
2023-05-13T00:08:27.649Z,56.25
2023-05-13T00:10:54.764Z,55.95
2023-05-13T00:13:22.107Z,55.81
2023-05-13T00:15:49.353Z,55.43
2023-05-13T00:18:16.347Z,54.96
2023-05-13T00:20:43.553Z,55.37
2023-05-13T00:23:11.612Z,55.43
2023-05-13T00:25:39.007Z,55.32
2023-05-13T00:28:05.999Z,55.73
2023-05-13T00:30:32.964Z,55.33
2023-05-13T00:33:01.161Z,55.27
2023-05-13T00:35:28.609Z,55.52
2023-05-13T00:37:57.018Z,55.86
2023-05-13T00:40:25.232Z,56.11
2023-05-13T00:42:52.684Z,55.75
2023-05-13T00:45:20.088Z,56.00
2023-05-13T00:47:48.511Z,55.08
2023-05-13T00:50:16.066Z,56.24
2023-05-13T00:52:44.723Z,56.51
2023-05-13T00:55:12.174Z,56.37
2023-05-13T00:57:40.660Z,56.31
2023-05-13T01:00:08.856Z,56.16
2023-05-13T01:03:02.931Z,56.29
2023-05-13T01:05:50.403Z,56.89
2023-05-13T01:08:35.912Z,56.30
2023-05-13T01:11:11.921Z,56.79
2023-05-13T01:13:43.557Z,56.84
2023-05-13T01:16:36.148Z,56.60
2023-05-13T01:19:13.120Z,57.34
2023-05-13T01:21:40.503Z,57.20
2023-05-13T01:24:08.319Z,56.81
2023-05-13T01:26:35.671Z,58.12
2023-05-13T01:29:03.495Z,58.18
2023-05-13T01:31:33.133Z,57.57
2023-05-13T01:34:00.435Z,57.87
2023-05-13T01:36:29.523Z,58.13
2023-05-13T01:38:58.749Z,58.35
2023-05-13T01:41:27.591Z,58.53
2023-05-13T01:43:54.798Z,58.75
2023-05-13T01:46:22.591Z,59.00
2023-05-13T01:48:51.132Z,58.95
2023-05-13T01:51:18.487Z,58.87
2023-05-13T01:53:45.677Z,59.41
2023-05-13T01:56:12.702Z,59.26
2023-05-13T01:58:39.615Z,59.41
2023-05-13T02:01:07.154Z,60.09
2023-05-13T02:03:36.424Z,60.04
2023-05-13T02:06:03.611Z,59.65
2023-05-13T02:08:31.290Z,60.24
2023-05-13T02:10:59.895Z,59.49
2023-05-13T02:13:29.180Z,59.92
2023-05-13T02:15:56.794Z,59.70
2023-05-13T02:18:24.154Z,58.96
2023-05-13T02:20:51.508Z,58.65
2023-05-13T02:23:18.440Z,58.57
2023-05-13T02:25:45.397Z,59.34
2023-05-13T02:28:12.801Z,59.00
2023-05-13T02:30:41.833Z,59.81
2023-05-13T02:33:09.248Z,59.82
2023-05-13T02:35:36.674Z,59.87
2023-05-13T02:38:04.587Z,59.80
2023-05-13T02:40:33.665Z,60.28
2023-05-13T02:43:00.559Z,60.67
2023-05-13T02:45:41.932Z,60.34
2023-05-13T02:48:11.427Z,59.82
2023-05-13T02:50:39.432Z,59.76
2023-05-13T02:53:06.907Z,60.42
2023-05-13T02:55:36.541Z,60.33
2023-05-13T02:58:04.677Z,59.14
2023-05-13T03:00:32.172Z,59.40
2023-05-13T03:02:59.232Z,59.74
2023-05-13T03:05:28.419Z,59.43
2023-05-13T03:07:58.540Z,59.58
2023-05-13T03:10:26.283Z,59.03
2023-05-13T03:12:53.940Z,60.16
2023-05-13T03:15:20.738Z,60.65
2023-05-13T03:17:47.458Z,60.58
2023-05-13T03:20:14.639Z,60.19
2023-05-13T03:22:41.714Z,60.39
2023-05-13T03:25:09.304Z,59.92
2023-05-13T03:27:42.519Z,60.40
2023-05-13T03:30:11.646Z,59.66
2023-05-13T03:32:46.473Z,59.23
2023-05-13T03:35:16.766Z,59.68
2023-05-13T03:37:44.223Z,59.83
2023-05-13T03:40:16.225Z,59.62
2023-05-13T03:42:43.462Z,59.29
2023-05-13T03:45:11.906Z,59.01
2023-05-13T03:47:41.423Z,59.37
2023-05-13T03:50:14.294Z,59.25
2023-05-13T03:52:46.264Z,59.15
2023-05-13T03:55:15.371Z,59.09
2023-05-13T03:57:45.384Z,58.83
2023-05-13T04:00:13.623Z,59.01
2023-05-13T04:02:44.095Z,58.88
2023-05-13T04:05:13.940Z,58.22
2023-05-13T04:07:41.571Z,58.27
2023-05-13T04:10:09.364Z,58.38
2023-05-13T04:12:37.818Z,58.62
2023-05-13T04:15:05.089Z,58.89
2023-05-13T04:17:32.475Z,59.13
2023-05-13T04:19:59.425Z,58.76
2023-05-13T04:22:26.781Z,58.51
2023-05-13T04:24:56.843Z,58.20
2023-05-13T04:27:24.784Z,58.15
2023-05-13T04:29:57.491Z,57.97
2023-05-13T04:32:25.788Z,58.13
2023-05-13T04:34:55.553Z,57.90
2023-05-13T04:37:25.268Z,58.21
2023-05-13T04:39:56.137Z,57.85
2023-05-13T04:42:24.383Z,57.01
2023-05-13T04:44:51.350Z,56.70
2023-05-13T04:47:19.507Z,57.33
2023-05-13T04:49:46.488Z,57.34
2023-05-13T04:52:14.535Z,56.92
2023-05-13T04:54:42.633Z,56.21
2023-05-13T04:57:10.719Z,55.87
2023-05-13T04:59:37.804Z,55.95
2023-05-13T05:02:05.103Z,55.65
2023-05-13T05:04:34.147Z,55.92
2023-05-13T05:07:03.391Z,55.66
2023-05-13T05:09:30.862Z,56.48
2023-05-13T05:11:59.404Z,55.99
2023-05-13T05:14:28.062Z,55.82
2023-05-13T05:16:55.774Z,55.21
2023-05-13T05:19:24.918Z,55.63
2023-05-13T05:21:55.246Z,56.09
2023-05-13T05:24:22.697Z,54.94
2023-05-13T05:26:50.178Z,54.87
2023-05-13T05:29:18.689Z,55.38
2023-05-13T05:31:47.844Z,55.32
2023-05-13T05:34:16.016Z,55.58
2023-05-13T05:36:49.084Z,54.99
2023-05-13T05:39:19.635Z,55.17
2023-05-13T05:41:53.687Z,53.99
2023-05-13T05:44:26.246Z,53.45
2023-05-13T05:46:55.070Z,54.04
2023-05-13T05:49:23.827Z,53.80
2023-05-13T05:51:53.315Z,53.93
2023-05-13T05:54:33.363Z,53.92
2023-05-13T05:57:18.683Z,53.54
2023-05-13T05:59:48.768Z,53.57
2023-05-13T06:02:22.122Z,53.66
2023-05-13T06:04:52.020Z,53.50
2023-05-13T06:07:19.989Z,53.54
2023-05-13T06:09:46.920Z,53.21
2023-05-13T06:12:13.918Z,53.60
2023-05-13T06:14:41.065Z,52.40
2023-05-13T06:17:09.623Z,52.07
2023-05-13T06:19:37.452Z,51.96
2023-05-13T06:22:06.762Z,51.78
2023-05-13T06:24:37.417Z,52.04
2023-05-13T06:27:06.006Z,51.48
2023-05-13T06:29:33.892Z,51.89
2023-05-13T06:32:01.954Z,52.13
2023-05-13T06:34:31.859Z,52.03
2023-05-13T06:37:00.547Z,52.04
2023-05-13T06:39:30.293Z,51.93
2023-05-13T06:41:58.208Z,51.38
2023-05-13T06:44:32.067Z,51.41
2023-05-13T06:47:05.367Z,51.60
2023-05-13T06:49:36.272Z,51.14
2023-05-13T06:52:03.708Z,50.72
2023-05-13T06:54:31.191Z,50.23
2023-05-13T06:56:58.670Z,50.02
2023-05-13T06:59:26.250Z,50.21
2023-05-13T07:01:53.297Z,50.71
2023-05-13T07:04:20.649Z,50.34
2023-05-13T07:06:49.021Z,49.93
2023-05-13T07:09:17.279Z,50.22
2023-05-13T07:11:44.558Z,50.29
2023-05-13T07:14:11.483Z,50.09
2023-05-13T07:16:38.785Z,49.60
2023-05-13T07:19:06.552Z,50.01
2023-05-13T07:21:33.813Z,49.97
2023-05-13T07:24:02.329Z,50.06
2023-05-13T07:26:29.634Z,50.09
2023-05-13T07:28:57.601Z,50.20
2023-05-13T07:31:24.581Z,49.24
2023-05-13T07:33:51.378Z,49.74
2023-05-13T07:36:18.730Z,50.79
2023-05-13T07:38:46.442Z,49.84
2023-05-13T07:41:13.766Z,49.85
2023-05-13T07:43:41.899Z,49.14
2023-05-13T07:46:10.143Z,49.42
2023-05-13T07:48:37.434Z,49.98
2023-05-13T07:51:06.525Z,50.29
2023-05-13T07:53:33.924Z,50.20
2023-05-13T07:56:03.708Z,49.07
2023-05-13T07:58:31.277Z,48.62
2023-05-13T08:00:59.110Z,48.05
2023-05-13T08:03:26.049Z,48.90
2023-05-13T08:05:53.182Z,48.94
2023-05-13T08:08:20.006Z,48.49
2023-05-13T08:10:46.847Z,47.80
2023-05-13T08:13:14.038Z,47.87
2023-05-13T08:15:41.353Z,47.79
2023-05-13T08:18:08.692Z,47.73
2023-05-13T08:20:36.201Z,48.42
2023-05-13T08:23:03.997Z,47.90
2023-05-13T08:25:31.433Z,47.71
2023-05-13T08:27:59.324Z,47.70
2023-05-13T08:30:26.226Z,48.51
2023-05-13T08:32:53.672Z,48.51
2023-05-13T08:35:22.179Z,47.92
2023-05-13T08:37:49.737Z,47.80
2023-05-13T08:40:17.723Z,47.06
2023-05-13T08:42:50.128Z,48.94
2023-05-13T08:45:20.867Z,48.85
2023-05-13T08:47:55.870Z,49.00
2023-05-13T08:50:23.380Z,48.82
2023-05-13T08:52:54.266Z,49.16
2023-05-13T08:55:22.957Z,50.83
2023-05-13T08:57:51.265Z,50.16
2023-05-13T09:00:21.410Z,50.42
2023-05-13T09:02:50.199Z,51.37
2023-05-13T09:05:17.998Z,51.80
2023-05-13T09:07:44.941Z,51.89
2023-05-13T09:10:11.991Z,51.15
2023-05-13T09:12:52.994Z,51.87
2023-05-13T09:15:26.763Z,51.43
2023-05-13T09:17:55.130Z,51.55
2023-05-13T09:20:27.176Z,51.11
2023-05-13T09:22:57.809Z,52.13
2023-05-13T09:25:26.292Z,53.06
2023-05-13T09:27:59.018Z,53.04
2023-05-13T09:30:31.226Z,54.16
2023-05-13T09:33:04.507Z,51.99
2023-05-13T09:35:32.974Z,52.25
2023-05-13T09:38:00.278Z,52.56
2023-05-13T09:40:27.604Z,51.75
2023-05-13T09:43:00.462Z,51.61
2023-05-13T09:45:27.746Z,52.34
2023-05-13T09:47:56.205Z,53.36
2023-05-13T09:50:24.350Z,55.25
2023-05-13T09:52:51.853Z,53.26
2023-05-13T09:55:18.804Z,52.29
2023-05-13T09:57:46.272Z,52.70
2023-05-13T10:00:24.772Z,52.34
2023-05-13T10:02:59.113Z,52.51
2023-05-13T10:05:26.894Z,51.60
2023-05-13T10:07:54.822Z,51.93
2023-05-13T10:10:22.604Z,51.92
2023-05-13T10:12:52.425Z,51.71
2023-05-13T10:15:21.719Z,52.02
2023-05-13T10:17:49.989Z,51.96
2023-05-13T10:20:17.981Z,52.28
2023-05-13T10:22:46.295Z,52.06
2023-05-13T10:25:15.733Z,52.66
2023-05-13T10:27:44.836Z,52.94
2023-05-13T10:30:13.435Z,51.80
2023-05-13T10:32:41.325Z,51.12
2023-05-13T10:35:19.980Z,51.77
2023-05-13T10:38:17.487Z,52.52
2023-05-13T10:41:08.275Z,53.36
2023-05-13T10:43:36.254Z,52.23
2023-05-13T10:46:11.879Z,52.73
2023-05-13T10:48:41.059Z,51.44
2023-05-13T10:51:08.662Z,51.90
2023-05-13T10:53:44.580Z,51.32
2023-05-13T10:56:12.464Z,51.04
2023-05-13T10:58:41.440Z,53.37
2023-05-13T11:01:36.018Z,51.21
2023-05-13T11:04:05.299Z,51.29
2023-05-13T11:06:41.199Z,49.82
2023-05-13T11:09:13.297Z,50.99
2023-05-13T11:11:43.387Z,49.62
2023-05-13T11:14:21.273Z,50.63
2023-05-13T11:17:02.019Z,52.07
2023-05-13T11:19:36.804Z,49.99
2023-05-13T11:22:10.773Z,49.46
2023-05-13T11:24:39.989Z,49.65
2023-05-13T11:27:13.721Z,49.08
2023-05-13T11:29:54.257Z,52.88
2023-05-13T11:32:53.685Z,50.05
2023-05-13T11:35:33.575Z,49.76
2023-05-13T11:38:06.774Z,51.41
2023-05-13T11:40:39.436Z,50.93
2023-05-13T11:43:09.854Z,51.06
2023-05-13T11:45:40.335Z,50.15
2023-05-13T11:48:20.362Z,49.99
2023-05-13T11:50:47.365Z,50.72
2023-05-13T11:53:20.733Z,50.07
2023-05-13T11:55:49.368Z,51.13
2023-05-13T11:58:16.493Z,49.47
2023-05-13T12:00:46.363Z,53.79
2023-05-13T12:03:17.327Z,54.67
2023-05-13T12:05:45.428Z,50.75
2023-05-13T12:08:12.360Z,49.58
2023-05-13T12:10:45.807Z,48.54
2023-05-13T12:13:13.185Z,47.03
2023-05-13T12:15:40.536Z,49.12
2023-05-13T12:18:07.676Z,48.10
2023-05-13T12:20:34.751Z,48.97
2023-05-13T12:23:02.342Z,47.62
2023-05-13T12:25:38.288Z,46.02
2023-05-13T12:28:19.019Z,45.13
2023-05-13T12:30:57.533Z,48.53
2023-05-13T12:33:45.527Z,46.64
2023-05-13T12:36:20.890Z,45.94
2023-05-13T12:39:01.193Z,46.46
2023-05-13T12:41:40.097Z,46.08
2023-05-13T12:44:15.052Z,46.57
2023-05-13T12:46:52.831Z,45.65
2023-05-13T12:49:20.257Z,44.58
2023-05-13T12:51:47.115Z,44.67
2023-05-13T12:54:14.731Z,45.52
2023-05-13T12:56:41.654Z,45.22
2023-05-13T12:59:08.978Z,44.73
2023-05-13T13:01:37.349Z,44.67
2023-05-13T13:04:04.673Z,44.82
2023-05-13T13:06:32.805Z,45.62
2023-05-13T13:08:59.657Z,45.55
2023-05-13T13:11:26.898Z,45.54
2023-05-13T13:13:53.913Z,46.20
2023-05-13T13:16:22.075Z,47.46
2023-05-13T13:18:53.053Z,46.78
2023-05-13T13:21:21.095Z,47.98
2023-05-13T13:23:47.867Z,49.26
2023-05-13T13:26:15.808Z,49.68
2023-05-13T13:28:43.018Z,49.77
2023-05-13T13:31:09.778Z,48.29
2023-05-13T13:33:37.465Z,46.28
2023-05-13T13:36:05.362Z,45.85
2023-05-13T13:38:32.734Z,45.82
2023-05-13T13:40:59.601Z,46.29
2023-05-13T13:43:26.942Z,50.14
2023-05-13T13:45:53.961Z,48.99
2023-05-13T13:48:21.475Z,49.30
2023-05-13T13:50:49.799Z,48.41
2023-05-13T13:53:17.903Z,48.27
2023-05-13T13:55:44.809Z,50.16
2023-05-13T13:58:11.872Z,49.13
2023-05-13T14:00:39.382Z,50.62
2023-05-13T14:03:06.660Z,48.30
2023-05-13T14:05:33.772Z,47.04
2023-05-13T14:08:00.918Z,47.11
2023-05-13T14:10:27.708Z,50.04
2023-05-13T14:12:54.612Z,46.30
2023-05-13T14:15:21.657Z,45.89
2023-05-13T14:17:49.013Z,48.22
2023-05-13T14:20:17.014Z,45.84
2023-05-13T14:22:44.154Z,47.89
2023-05-13T14:25:11.023Z,45.94
2023-05-13T14:27:37.981Z,48.79
2023-05-13T14:30:06.866Z,49.57
2023-05-13T14:32:34.726Z,48.60
2023-05-13T14:35:01.664Z,46.71
2023-05-13T14:37:28.543Z,46.17
2023-05-13T14:39:56.081Z,45.27
2023-05-13T14:42:23.067Z,45.22
2023-05-13T14:44:50.582Z,45.79
2023-05-13T14:47:17.665Z,46.59
2023-05-13T14:49:44.722Z,44.86
2023-05-13T14:52:11.784Z,44.07
2023-05-13T14:54:38.864Z,44.44
2023-05-13T14:57:07.066Z,45.81
2023-05-13T14:59:34.219Z,47.46
2023-05-13T15:02:02.746Z,46.72
2023-05-13T15:04:29.867Z,46.01
2023-05-13T15:06:56.911Z,46.27
2023-05-13T15:09:24.013Z,42.99
2023-05-13T15:11:51.053Z,43.10
2023-05-13T15:14:18.111Z,42.33
2023-05-13T15:16:46.183Z,42.64
2023-05-13T15:19:13.941Z,43.35
2023-05-13T15:21:41.314Z,42.55
2023-05-13T15:24:08.283Z,43.50
2023-05-13T15:26:35.024Z,43.39
2023-05-13T15:29:02.300Z,43.22
2023-05-13T15:31:31.391Z,42.84
2023-05-13T15:33:59.532Z,42.69
2023-05-13T15:36:26.742Z,42.60
2023-05-13T15:38:53.778Z,43.14
2023-05-13T15:41:20.692Z,43.35
2023-05-13T15:43:47.396Z,44.14
2023-05-13T15:46:14.432Z,43.27
2023-05-13T15:48:41.657Z,43.33
2023-05-13T15:51:08.520Z,43.46
2023-05-13T15:53:36.368Z,43.73
2023-05-13T15:56:03.332Z,44.37
2023-05-13T15:58:30.461Z,44.83
2023-05-13T16:00:57.167Z,44.46
2023-05-13T16:03:24.063Z,44.28
2023-05-13T16:05:51.488Z,43.18
2023-05-13T16:08:19.029Z,43.38
2023-05-13T16:10:46.137Z,43.14
2023-05-13T16:13:13.086Z,45.48
2023-05-13T16:15:39.911Z,46.46
2023-05-13T16:18:07.243Z,47.71
2023-05-13T16:20:34.334Z,46.75
2023-05-13T16:23:01.414Z,47.78
2023-05-13T16:25:28.404Z,47.60
2023-05-13T16:27:56.725Z,48.65
2023-05-13T16:30:23.895Z,48.17
2023-05-13T16:32:54.681Z,47.33
2023-05-13T16:35:22.095Z,47.70
2023-05-13T16:37:49.725Z,47.65
2023-05-13T16:40:16.767Z,45.39
2023-05-13T16:42:43.870Z,47.27
2023-05-13T16:45:11.155Z,47.94
2023-05-13T16:47:40.188Z,44.73
2023-05-13T16:50:08.615Z,44.30
2023-05-13T16:52:36.723Z,43.88
2023-05-13T16:55:03.641Z,43.62
2023-05-13T16:57:30.494Z,43.23
2023-05-13T16:59:57.441Z,43.55
2023-05-13T17:02:24.537Z,43.95
2023-05-13T17:04:51.470Z,44.02
2023-05-13T17:07:18.231Z,44.32
2023-05-13T17:09:45.375Z,44.03
2023-05-13T17:12:12.290Z,44.27
2023-05-13T17:14:39.713Z,44.53
2023-05-13T17:17:07.234Z,44.82
2023-05-13T17:19:35.039Z,44.56
2023-05-13T17:22:03.202Z,45.08
2023-05-13T17:24:30.879Z,46.37
2023-05-13T17:26:58.688Z,44.78
2023-05-13T17:29:26.027Z,44.25
2023-05-13T17:31:55.629Z,44.53
2023-05-13T17:34:23.166Z,44.84
2023-05-13T17:36:50.375Z,44.65
2023-05-13T17:39:17.870Z,43.92
2023-05-13T17:41:45.095Z,44.24
2023-05-13T17:44:15.862Z,44.92
2023-05-13T17:46:47.649Z,43.96
2023-05-13T17:49:16.243Z,44.18
2023-05-13T17:51:53.706Z,44.07
2023-05-13T17:54:23.627Z,44.20
2023-05-13T17:57:00.358Z,44.32
2023-05-13T17:59:27.900Z,44.03
2023-05-13T18:01:54.729Z,43.26
2023-05-13T18:04:22.299Z,43.02
2023-05-13T18:06:49.967Z,43.39
2023-05-13T18:09:17.140Z,42.48
2023-05-13T18:11:45.956Z,42.73
2023-05-13T18:14:14.340Z,42.82
2023-05-13T18:16:43.492Z,43.15
2023-05-13T18:19:12.402Z,43.41
2023-05-13T18:21:42.925Z,43.87
2023-05-13T18:24:13.671Z,43.61
2023-05-13T18:26:41.403Z,43.50
2023-05-13T18:29:10.538Z,44.04
2023-05-13T18:31:37.422Z,44.54
2023-05-13T18:34:04.512Z,44.97
2023-05-13T18:36:36.790Z,44.79
2023-05-13T18:39:05.321Z,45.90
2023-05-13T18:41:33.912Z,46.17
2023-05-13T18:44:04.658Z,46.47
2023-05-13T18:46:32.058Z,46.04
2023-05-13T18:49:04.709Z,45.86
2023-05-13T18:51:33.883Z,45.25
2023-05-13T18:54:01.936Z,45.58
2023-05-13T18:56:35.155Z,45.72
2023-05-13T18:59:04.088Z,46.12
2023-05-13T19:01:32.622Z,46.04
2023-05-13T19:04:02.611Z,46.02
2023-05-13T19:06:30.834Z,47.04
2023-05-13T19:09:01.851Z,48.17
2023-05-13T19:11:37.915Z,48.73
2023-05-13T19:14:05.905Z,48.95
2023-05-13T19:16:34.001Z,49.92
2023-05-13T19:19:01.706Z,49.95
2023-05-13T19:21:34.291Z,50.77
2023-05-13T19:24:07.990Z,50.96
2023-05-13T19:26:44.741Z,50.35
2023-05-13T19:29:12.934Z,50.22
2023-05-13T19:31:45.841Z,50.56
2023-05-13T19:34:20.439Z,50.21
2023-05-13T19:36:49.848Z,50.20
2023-05-13T19:39:18.178Z,50.15
2023-05-13T19:41:47.348Z,49.79
2023-05-13T19:44:15.009Z,50.40
2023-05-13T19:46:42.369Z,51.18
2023-05-13T19:49:09.605Z,50.92
2023-05-13T19:51:36.997Z,49.87
2023-05-13T19:54:06.505Z,49.63
2023-05-13T19:56:34.175Z,49.68
2023-05-13T19:59:01.620Z,50.31
2023-05-13T20:01:28.610Z,52.02
2023-05-13T20:03:55.754Z,52.83
2023-05-13T20:06:22.867Z,53.66
2023-05-13T20:08:49.775Z,54.26
2023-05-13T20:11:16.570Z,54.22
2023-05-13T20:13:43.897Z,53.62
2023-05-13T20:16:10.720Z,53.25
2023-05-13T20:18:38.234Z,52.71
2023-05-13T20:21:05.033Z,52.91
2023-05-13T20:23:32.077Z,54.48
2023-05-13T20:25:58.882Z,54.27
2023-05-13T20:28:25.739Z,53.96
2023-05-13T20:30:53.392Z,54.04
2023-05-13T20:33:20.575Z,54.66
2023-05-13T20:35:49.963Z,54.83
2023-05-13T20:38:17.228Z,54.41
2023-05-13T20:40:44.651Z,53.31
2023-05-13T20:43:11.563Z,53.41
2023-05-13T20:45:39.715Z,53.18
2023-05-13T20:48:07.969Z,52.41
2023-05-13T20:50:36.608Z,52.97
2023-05-13T20:53:03.554Z,53.12
2023-05-13T20:55:30.801Z,52.16
2023-05-13T20:57:57.735Z,52.70
2023-05-13T21:00:24.825Z,51.95
2023-05-13T21:02:53.267Z,52.68
2023-05-13T21:05:20.434Z,53.08
2023-05-13T21:07:47.431Z,53.18
2023-05-13T21:10:14.533Z,53.97
2023-05-13T21:12:41.325Z,54.29
2023-05-13T21:15:08.862Z,54.56
2023-05-13T21:17:35.747Z,54.66
2023-05-13T21:20:02.632Z,54.48
2023-05-13T21:22:29.493Z,54.49
2023-05-13T21:24:56.867Z,54.93
2023-05-13T21:27:24.016Z,54.62
2023-05-13T21:29:50.791Z,54.28
2023-05-13T21:32:17.705Z,53.52
2023-05-13T21:34:44.573Z,53.41
2023-05-13T21:37:11.240Z,53.49
2023-05-13T21:39:38.099Z,53.38
2023-05-13T21:42:05.435Z,53.47
2023-05-13T21:44:32.525Z,53.54
2023-05-13T21:47:00.094Z,53.17
2023-05-13T21:49:26.918Z,53.38
2023-05-13T21:51:53.672Z,53.44
2023-05-13T21:54:20.638Z,53.43
2023-05-13T21:56:48.597Z,53.75
2023-05-13T21:59:15.535Z,54.28
2023-05-13T22:01:42.369Z,54.31
2023-05-13T22:04:09.277Z,55.11
2023-05-13T22:06:36.086Z,55.46
2023-05-13T22:09:02.799Z,55.14
2023-05-13T22:11:29.521Z,55.00
2023-05-13T22:13:56.308Z,54.58
2023-05-13T22:16:23.130Z,54.54
2023-05-13T22:18:50.989Z,54.23
2023-05-13T22:21:18.128Z,54.04
2023-05-13T22:23:44.881Z,53.44
2023-05-13T22:26:12.337Z,53.15
2023-05-13T22:28:39.290Z,53.43
2023-05-13T22:31:06.344Z,52.88
2023-05-13T22:33:33.439Z,52.96
2023-05-13T22:36:00.233Z,53.10
2023-05-13T22:38:27.096Z,53.17
2023-05-13T22:40:54.151Z,53.03
2023-05-13T22:43:20.906Z,52.71
2023-05-13T22:45:47.875Z,52.49
2023-05-13T22:48:15.122Z,53.29
2023-05-13T22:50:41.790Z,53.50
2023-05-13T22:53:08.701Z,53.88
2023-05-13T22:55:35.549Z,54.65
2023-05-13T22:58:02.378Z,55.27
2023-05-13T23:00:29.091Z,54.93
2023-05-13T23:02:56.034Z,54.88
2023-05-13T23:05:23.116Z,54.71
2023-05-13T23:07:49.893Z,54.03
2023-05-13T23:10:17.816Z,53.98
2023-05-13T23:12:44.830Z,54.57
2023-05-13T23:15:14.403Z,54.30
2023-05-13T23:17:41.099Z,54.13
2023-05-13T23:20:08.607Z,55.56
2023-05-13T23:22:35.605Z,54.96
2023-05-13T23:25:02.308Z,54.98
2023-05-13T23:27:31.506Z,55.47
2023-05-13T23:29:58.800Z,55.53
2023-05-13T23:32:26.018Z,55.03
2023-05-13T23:34:52.908Z,55.51
2023-05-13T23:37:21.911Z,55.62
2023-05-13T23:39:48.640Z,56.00
2023-05-13T23:42:16.500Z,56.28
2023-05-13T23:44:43.245Z,56.38
2023-05-13T23:47:10.107Z,56.02
2023-05-13T23:49:36.920Z,54.91
2023-05-13T23:52:05.302Z,55.01
2023-05-13T23:54:32.121Z,56.00
2023-05-13T23:56:59.163Z,55.89
2023-05-13T23:59:26.211Z,56.11
